PWSweather.com
Personal Weather Stations
Station Observations
KOHREFORM1
Reform, Ohio, Newark, OH 43055

Reform, OhioNewark, OH 43055

Lat: 40.1502, Lon: -82.2417

Elevation: 1043

Station Type: Davis Vantage Pro 2 Plus

Latest ConditionsUpdated 2:31:56 AM EDT Friday, May 24, 2019
Currently Today's Max Today's Min Today's Average
Temperature 66.2°F19.0°C 71.2°F21.8°C 66.2°F19.0°C 68.7°F20.4°C
Dew Point 60.2°F15.7°C 65.1°F18.4°C 59.9°F15.5°C 62.8°F17.1°C
Winds Calm Calm 4.0 mph -6.4 kmh - - 0.8 mph 1.3 kmh
Wind Gusts 2.3 mph3.7 kmh 6.8 mph10.9 kmh - -
Humidity 81% 84% 80% 82%
Pressure 30.07 in1018.3 mb 30.07 in1018.3 mb 30.05 in1017.6 mb -
Hour Temp Dew Point Humidity Winds Wind Gusts Pressure Precip Precip Rate Daily Precip Total
02:31 AM 66.2°F19.0°C 60.2°F15.7°C 81% Calm Calm 2.3 mph3.7 kmh 30.07 in1018.3 mb 0.00 in0.0 mm 0.00 in0.0 mm 0.00 in0.0 mm
02:29 AM 66.3°F19.1°C 59.9°F15.5°C 80% 1.0 mph NE1.6 kmh NE 2.3 mph3.7 kmh 30.06 in1017.9 mb 0.00 in0.0 mm 0.00 in0.0 mm 0.00 in0.0 mm
02:27 AM 66.4°F19.1°C 60.0°F15.6°C 80% 1.0 mph N1.6 kmh N 2.3 mph3.7 kmh 30.06 in1017.9 mb 0.00 in0.0 mm 0.00 in0.0 mm 0.00 in0.0 mm
02:25 AM 66.5°F19.2°C 60.5°F15.8°C 81% 1.0 mph 1.6 kmh 3.4 mph5.5 kmh 30.06 in1017.9 mb 0.00 in0.0 mm 0.00 in0.0 mm 0.00 in0.0 mm
02:23 AM 66.5°F19.2°C 60.5°F15.8°C 81% Calm Calm 3.4 mph5.5 kmh 30.06 in1017.9 mb 0.00 in0.0 mm 0.00 in0.0 mm 0.00 in0.0 mm
02:21 AM 66.7°F19.3°C 60.7°F15.9°C 81% 1.0 mph N1.6 kmh N 3.4 mph5.5 kmh 30.06 in1017.9 mb 0.00 in0.0 mm 0.00 in0.0 mm 0.00 in0.0 mm
02:19 AM 66.8°F19.3°C 61.1°F16.2°C 82% Calm Calm 3.4 mph5.5 kmh 30.06 in1017.9 mb 0.00 in0.0 mm 0.00 in0.0 mm 0.00 in0.0 mm
02:17 AM 66.8°F19.3°C 60.8°F16.0°C 81% 1.0 mph NW1.6 kmh NW 3.4 mph5.5 kmh 30.06 in1017.9 mb 0.00 in0.0 mm 0.00 in0.0 mm 0.00 in0.0 mm
02:15 AM 66.9°F19.4°C 60.9°F16.1°C 81% 1.0 mph NNW1.6 kmh NNW 3.4 mph5.5 kmh 30.06 in1017.9 mb 0.00 in0.0 mm 0.00 in0.0 mm 0.00 in0.0 mm
02:13 AM 67.0°F19.4°C 60.6°F15.9°C 80% 2.0 mph N3.2 kmh N 3.4 mph5.5 kmh 30.06 in1017.9 mb 0.00 in0.0 mm 0.00 in0.0 mm 0.00 in0.0 mm
02:11 AM 67.2°F19.6°C 61.2°F16.2°C 81% 1.0 mph 1.6 kmh 3.4 mph5.5 kmh 30.06 in1017.9 mb 0.00 in0.0 mm 0.00 in0.0 mm 0.00 in0.0 mm
02:09 AM 67.2°F19.6°C 61.2°F16.2°C 81% Calm Calm 3.4 mph5.5 kmh 30.06 in1017.9 mb 0.00 in0.0 mm 0.00 in0.0 mm 0.00 in0.0 mm
02:07 AM 67.3°F19.6°C 61.3°F16.3°C 81% 1.0 mph N1.6 kmh N 3.4 mph5.5 kmh 30.06 in1017.9 mb 0.00 in0.0 mm 0.00 in0.0 mm 0.00 in0.0 mm
02:05 AM 67.4°F19.7°C 61.4°F16.3°C 81% 1.0 mph NNE1.6 kmh NNE 3.4 mph5.5 kmh 30.06 in1017.9 mb 0.00 in0.0 mm 0.00 in0.0 mm 0.00 in0.0 mm
02:03 AM 67.5°F19.7°C 61.5°F16.4°C 81% Calm Calm 3.4 mph5.5 kmh 30.07 in1018.3 mb 0.00 in0.0 mm 0.00 in0.0 mm 0.00 in0.0 mm
02:01 AM 67.5°F19.7°C 61.5°F16.4°C 81% Calm Calm 3.4 mph5.5 kmh 30.06 in1017.9 mb 0.00 in0.0 mm 0.00 in0.0 mm 0.00 in0.0 mm
01:59 AM 67.6°F19.8°C 61.9°F16.6°C 82% 1.0 mph N1.6 kmh N 3.4 mph5.5 kmh 30.06 in1017.9 mb 0.00 in0.0 mm 0.00 in0.0 mm 0.00 in0.0 mm
01:57 AM 67.7°F19.8°C 61.7°F16.5°C 81% 1.0 mph N1.6 kmh N 3.4 mph5.5 kmh 30.06 in1017.9 mb 0.00 in0.0 mm 0.00 in0.0 mm 0.00 in0.0 mm
01:55 AM 67.8°F19.9°C 62.1°F16.7°C 82% 1.0 mph N1.6 kmh N 2.3 mph3.7 kmh 30.06 in1017.9 mb 0.00 in0.0 mm 0.00 in0.0 mm 0.00 in0.0 mm
01:53 AM 67.9°F19.9°C 62.2°F16.8°C 82% 1.0 mph N1.6 kmh N 2.3 mph3.7 kmh 30.06 in1017.9 mb 0.00 in0.0 mm 0.00 in0.0 mm 0.00 in0.0 mm
01:51 AM 67.9°F19.9°C 62.2°F16.8°C 82% 1.0 mph N1.6 kmh N 4.6 mph7.4 kmh 30.06 in1017.9 mb 0.00 in0.0 mm 0.00 in0.0 mm 0.00 in0.0 mm
01:49 AM 68.0°F20.0°C 61.9°F16.6°C 81% Calm Calm 4.6 mph7.4 kmh 30.06 in1017.9 mb 0.00 in0.0 mm 0.00 in0.0 mm 0.00 in0.0 mm
01:47 AM 68.0°F20.0°C 61.9°F16.6°C 81% 1.0 mph N1.6 kmh N 4.6 mph7.4 kmh 30.06 in1017.9 mb 0.00 in0.0 mm 0.00 in0.0 mm 0.00 in0.0 mm
01:45 AM 68.2°F20.1°C 62.1°F16.7°C 81% 2.0 mph N3.2 kmh N 4.6 mph7.4 kmh 30.06 in1017.9 mb 0.00 in0.0 mm 0.00 in0.0 mm 0.00 in0.0 mm
01:43 AM 68.2°F20.1°C 62.1°F16.7°C 81% 1.0 mph N1.6 kmh N 4.6 mph7.4 kmh 30.06 in1017.9 mb 0.00 in0.0 mm 0.00 in0.0 mm 0.00 in0.0 mm
01:41 AM 68.3°F20.2°C 62.2°F16.8°C 81% 1.0 mph N1.6 kmh N 5.7 mph9.2 kmh 30.06 in1017.9 mb 0.00 in0.0 mm 0.00 in0.0 mm 0.00 in0.0 mm
01:39 AM 68.3°F20.2°C 62.2°F16.8°C 81% 1.0 mph 1.6 kmh 5.7 mph9.2 kmh 30.06 in1017.9 mb 0.00 in0.0 mm 0.00 in0.0 mm 0.00 in0.0 mm
01:37 AM 68.4°F20.2°C 62.3°F16.8°C 81% 1.0 mph NNE1.6 kmh NNE 5.7 mph9.2 kmh 30.06 in1017.9 mb 0.00 in0.0 mm 0.00 in0.0 mm 0.00 in0.0 mm
01:35 AM 68.5°F20.3°C 62.4°F16.9°C 81% 1.0 mph NNE1.6 kmh NNE 5.7 mph9.2 kmh 30.06 in1017.9 mb 0.00 in0.0 mm 0.00 in0.0 mm 0.00 in0.0 mm
01:33 AM 68.5°F20.3°C 62.4°F16.9°C 81% 2.0 mph NNE3.2 kmh NNE 5.7 mph9.2 kmh 30.06 in1017.9 mb 0.00 in0.0 mm 0.00 in0.0 mm 0.00 in0.0 mm
01:31 AM 68.6°F20.3°C 62.5°F16.9°C 81% 1.0 mph NNE1.6 kmh NNE 5.7 mph9.2 kmh 30.06 in1017.9 mb 0.00 in0.0 mm 0.00 in0.0 mm 0.00 in0.0 mm
01:29 AM 68.6°F20.3°C 62.2°F16.8°C 80% 2.0 mph NNE3.2 kmh NNE 5.7 mph9.2 kmh 30.06 in1017.9 mb 0.00 in0.0 mm 0.00 in0.0 mm 0.00 in0.0 mm
01:27 AM 68.7°F20.4°C 62.6°F17.0°C 81% 2.0 mph N3.2 kmh N 5.7 mph9.2 kmh 30.06 in1017.9 mb 0.00 in0.0 mm 0.00 in0.0 mm 0.00 in0.0 mm
01:25 AM 68.8°F20.4°C 62.7°F17.1°C 81% 1.0 mph NNE1.6 kmh NNE 5.7 mph9.2 kmh 30.06 in1017.9 mb 0.00 in0.0 mm 0.00 in0.0 mm 0.00 in0.0 mm
01:23 AM 68.8°F20.4°C 62.4°F16.9°C 80% 1.0 mph ENE1.6 kmh ENE 5.7 mph9.2 kmh 30.06 in1017.9 mb 0.00 in0.0 mm 0.00 in0.0 mm 0.00 in0.0 mm
01:21 AM 68.8°F20.4°C 62.7°F17.1°C 81% 3.0 mph N4.8 kmh N 4.6 mph7.4 kmh 30.06 in1017.9 mb 0.00 in0.0 mm 0.00 in0.0 mm 0.00 in0.0 mm
01:19 AM 68.9°F20.5°C 62.8°F17.1°C 81% 3.0 mph N4.8 kmh N 4.6 mph7.4 kmh 30.06 in1017.9 mb 0.00 in0.0 mm 0.00 in0.0 mm 0.00 in0.0 mm
01:17 AM 68.9°F20.5°C 62.8°F17.1°C 81% Calm Calm 4.6 mph7.4 kmh 30.06 in1017.9 mb 0.00 in0.0 mm 0.00 in0.0 mm 0.00 in0.0 mm
01:15 AM 68.9°F20.5°C 62.8°F17.1°C 81% 1.0 mph N1.6 kmh N 4.6 mph7.4 kmh 30.06 in1017.9 mb 0.00 in0.0 mm 0.00 in0.0 mm 0.00 in0.0 mm
01:13 AM 68.9°F20.5°C 62.8°F17.1°C 81% 1.0 mph N1.6 kmh N 4.6 mph7.4 kmh 30.06 in1017.9 mb 0.00 in0.0 mm 0.00 in0.0 mm 0.00 in0.0 mm
01:11 AM 68.9°F20.5°C 62.8°F17.1°C 81% 1.0 mph N1.6 kmh N 4.6 mph7.4 kmh 30.06 in1017.9 mb 0.00 in0.0 mm 0.00 in0.0 mm 0.00 in0.0 mm
01:09 AM 68.9°F20.5°C 63.2°F17.3°C 82% 4.0 mph NNW6.4 kmh NNW 4.6 mph7.4 kmh 30.05 in1017.6 mb 0.00 in0.0 mm 0.00 in0.0 mm 0.00 in0.0 mm
01:07 AM 69.0°F20.6°C 63.6°F17.6°C 83% 1.0 mph NE1.6 kmh NE 6.8 mph10.9 kmh 30.06 in1017.9 mb 0.00 in0.0 mm 0.00 in0.0 mm 0.00 in0.0 mm
01:05 AM 69.0°F20.6°C 62.9°F17.2°C 81% 2.0 mph ENE3.2 kmh ENE 6.8 mph10.9 kmh 30.06 in1017.9 mb 0.00 in0.0 mm 0.00 in0.0 mm 0.00 in0.0 mm
01:03 AM 69.0°F20.6°C 63.6°F17.6°C 83% 1.0 mph NNE1.6 kmh NNE 6.8 mph10.9 kmh 30.06 in1017.9 mb 0.00 in0.0 mm 0.00 in0.0 mm 0.00 in0.0 mm
01:01 AM 69.0°F20.6°C 63.3°F17.4°C 82% 2.0 mph NNE3.2 kmh NNE 6.8 mph10.9 kmh 30.06 in1017.9 mb 0.00 in0.0 mm 0.00 in0.0 mm 0.00 in0.0 mm
12:59 AM 69.1°F20.6°C 63.4°F17.4°C 82% 1.0 mph NNE1.6 kmh NNE 6.8 mph10.9 kmh 30.06 in1017.9 mb 0.00 in0.0 mm 0.00 in0.0 mm 0.00 in0.0 mm
12:57 AM 69.1°F20.6°C 63.4°F17.4°C 82% 1.0 mph NNE1.6 kmh NNE 6.8 mph10.9 kmh 30.06 in1017.9 mb 0.00 in0.0 mm 0.00 in0.0 mm 0.00 in0.0 mm
12:55 AM 69.1°F20.6°C 63.4°F17.4°C 82% 1.0 mph NNE1.6 kmh NNE 6.8 mph10.9 kmh 30.06 in1017.9 mb 0.00 in0.0 mm 0.00 in0.0 mm 0.00 in0.0 mm
12:53 AM 69.0°F20.6°C 63.3°F17.4°C 82% Calm Calm 6.8 mph10.9 kmh 30.06 in1017.9 mb 0.00 in0.0 mm 0.00 in0.0 mm 0.00 in0.0 mm
12:51 AM 69.0°F20.6°C 63.6°F17.6°C 83% 1.0 mph ENE1.6 kmh ENE 6.8 mph10.9 kmh 30.06 in1017.9 mb 0.00 in0.0 mm 0.00 in0.0 mm 0.00 in0.0 mm
12:49 AM 69.0°F20.6°C 63.6°F17.6°C 83% Calm Calm 6.8 mph10.9 kmh 30.06 in1017.9 mb 0.00 in0.0 mm 0.00 in0.0 mm 0.00 in0.0 mm
12:47 AM 69.1°F20.6°C 63.7°F17.6°C 83% 1.0 mph 1.6 kmh 2.3 mph3.7 kmh 30.06 in1017.9 mb 0.00 in0.0 mm 0.00 in0.0 mm 0.00 in0.0 mm
12:45 AM 69.1°F20.6°C 64.1°F17.8°C 84% Calm Calm 1.1 mph1.8 kmh 30.06 in1017.9 mb 0.00 in0.0 mm 0.00 in0.0 mm 0.00 in0.0 mm
12:43 AM 69.3°F20.7°C 64.2°F17.9°C 84% Calm Calm -- 30.06 in1017.9 mb 0.00 in0.0 mm 0.00 in0.0 mm 0.00 in0.0 mm
12:41 AM 69.3°F20.7°C 63.9°F17.7°C 83% Calm Calm -- 30.06 in1017.9 mb 0.00 in0.0 mm 0.00 in0.0 mm 0.00 in0.0 mm
12:39 AM 69.4°F20.8°C 63.7°F17.6°C 82% Calm Calm 3.4 mph5.5 kmh 30.06 in1017.9 mb 0.00 in0.0 mm 0.00 in0.0 mm 0.00 in0.0 mm
12:37 AM 69.4°F20.8°C 64.0°F17.8°C 83% 1.0 mph ESE1.6 kmh ESE 3.4 mph5.5 kmh 30.06 in1017.9 mb 0.00 in0.0 mm 0.00 in0.0 mm 0.00 in0.0 mm
12:35 AM 69.5°F20.8°C 64.1°F17.8°C 83% Calm Calm 3.4 mph5.5 kmh 30.06 in1017.9 mb 0.00 in0.0 mm 0.00 in0.0 mm 0.00 in0.0 mm
12:33 AM 69.6°F20.9°C 64.2°F17.9°C 83% 1.0 mph ESE1.6 kmh ESE 2.3 mph3.7 kmh 30.06 in1017.9 mb 0.00 in0.0 mm 0.00 in0.0 mm 0.00 in0.0 mm
12:31 AM 69.6°F20.9°C 63.9°F17.7°C 82% Calm Calm 2.3 mph3.7 kmh 30.06 in1017.9 mb 0.00 in0.0 mm 0.00 in0.0 mm 0.00 in0.0 mm
12:29 AM 69.7°F20.9°C 63.9°F17.7°C 82% Calm Calm 2.3 mph3.7 kmh 30.06 in1017.9 mb 0.00 in0.0 mm 0.00 in0.0 mm 0.00 in0.0 mm
12:27 AM 69.9°F21.1°C 64.1°F17.8°C 82% Calm Calm 2.3 mph3.7 kmh 30.06 in1017.9 mb 0.00 in0.0 mm 0.00 in0.0 mm 0.00 in0.0 mm
12:25 AM 70.0°F21.1°C 64.2°F17.9°C 82% Calm Calm 2.3 mph3.7 kmh 30.06 in1017.9 mb 0.00 in0.0 mm 0.00 in0.0 mm 0.00 in0.0 mm
12:23 AM 70.1°F21.2°C 64.3°F17.9°C 82% Calm Calm -- 30.06 in1017.9 mb 0.00 in0.0 mm 0.00 in0.0 mm 0.00 in0.0 mm
12:21 AM 70.2°F21.2°C 64.1°F17.8°C 81% Calm Calm 2.3 mph3.7 kmh 30.06 in1017.9 mb 0.00 in0.0 mm 0.00 in0.0 mm 0.00 in0.0 mm
12:19 AM 70.3°F21.3°C 64.5°F18.1°C 82% 1.0 mph NE1.6 kmh NE 1.1 mph1.8 kmh 30.06 in1017.9 mb 0.00 in0.0 mm 0.00 in0.0 mm 0.00 in0.0 mm
12:17 AM 70.4°F21.3°C 64.6°F18.1°C 82% Calm Calm 2.3 mph3.7 kmh 30.06 in1017.9 mb 0.00 in0.0 mm 0.00 in0.0 mm 0.00 in0.0 mm
12:15 AM 70.5°F21.4°C 64.4°F18.0°C 81% Calm Calm 2.3 mph3.7 kmh 30.06 in1017.9 mb 0.00 in0.0 mm 0.00 in0.0 mm 0.00 in0.0 mm
12:13 AM 70.7°F21.5°C 64.6°F18.1°C 81% 2.0 mph N3.2 kmh N 2.3 mph3.7 kmh 30.06 in1017.9 mb 0.00 in0.0 mm 0.00 in0.0 mm 0.00 in0.0 mm
12:11 AM 70.8°F21.6°C 64.7°F18.2°C 81% Calm Calm 1.1 mph1.8 kmh 30.06 in1017.9 mb 0.00 in0.0 mm 0.00 in0.0 mm 0.00 in0.0 mm
12:09 AM 70.8°F21.6°C 64.7°F18.2°C 81% Calm Calm 1.1 mph1.8 kmh 30.06 in1017.9 mb 0.00 in0.0 mm 0.00 in0.0 mm 0.00 in0.0 mm
12:07 AM 71.0°F21.7°C 64.9°F18.3°C 81% 1.0 mph 1.6 kmh 1.1 mph1.8 kmh 30.06 in1017.9 mb 0.00 in0.0 mm 0.00 in0.0 mm 0.00 in0.0 mm
12:05 AM 71.1°F21.7°C 65.0°F18.3°C 81% Calm Calm -- 30.06 in1017.9 mb 0.00 in0.0 mm 0.00 in0.0 mm 0.00 in0.0 mm
12:03 AM 71.2°F21.8°C 65.1°F18.4°C 81% Calm Calm 1.1 mph1.8 kmh 30.06 in1017.9 mb 0.00 in0.0 mm 0.00 in0.0 mm 0.00 in0.0 mm
12:01 AM 71.2°F21.8°C 65.1°F18.4°C 81% Calm Calm 1.1 mph1.8 kmh 30.06 in1017.9 mb 0.00 in0.0 mm 0.00 in0.0 mm 0.00 in0.0 mm